createdAt,value
2018-07-06T00:02:19.078Z,21.50
2018-07-06T00:04:58.801Z,21.50
2018-07-06T00:07:38.542Z,21.70
2018-07-06T00:10:18.107Z,21.50
2018-07-06T00:12:57.847Z,21.20
2018-07-06T00:18:11.374Z,21.40
2018-07-06T00:20:50.881Z,21.20
2018-07-06T00:23:30.559Z,21.10
2018-07-06T00:26:11.116Z,21.10
2018-07-06T00:28:51.077Z,21.70
2018-07-06T00:31:30.705Z,21.60
2018-07-06T00:34:10.422Z,21.50
2018-07-06T00:36:50.197Z,21.00
2018-07-06T00:39:29.826Z,21.10
2018-07-06T00:42:10.267Z,21.10
2018-07-06T00:44:50.083Z,20.90
2018-07-06T00:47:29.710Z,20.80
2018-07-06T00:50:09.309Z,20.60
2018-07-06T00:52:49.032Z,20.70
2018-07-06T00:55:28.663Z,20.70
2018-07-06T01:00:41.980Z,20.80
2018-07-06T01:03:21.544Z,20.50
2018-07-06T01:06:01.259Z,20.70
2018-07-06T01:08:40.922Z,20.80
2018-07-06T01:11:20.566Z,20.70
2018-07-06T01:14:00.295Z,20.50
2018-07-06T01:16:39.932Z,20.30
2018-07-06T01:19:19.535Z,20.30
2018-07-06T01:21:59.203Z,20.10
2018-07-06T01:24:38.984Z,20.10
2018-07-06T01:27:18.756Z,20.30
2018-07-06T01:29:58.530Z,20.60
2018-07-06T01:32:38.298Z,20.80
2018-07-06T01:35:17.892Z,20.90
2018-07-06T01:37:57.653Z,20.50
2018-07-06T01:40:37.411Z,20.70
2018-07-06T01:43:17.047Z,20.90
2018-07-06T01:45:56.663Z,21.10
2018-07-06T01:48:36.276Z,20.90
2018-07-06T01:51:16.056Z,21.30
2018-07-06T01:53:55.808Z,21.20
2018-07-06T01:56:35.671Z,20.90
2018-07-06T01:59:15.379Z,20.80
2018-07-06T02:01:54.995Z,20.80
2018-07-06T02:04:34.530Z,21.10
2018-07-06T02:07:14.082Z,21.00
2018-07-06T02:09:53.703Z,20.80
2018-07-06T02:12:33.580Z,20.60
2018-07-06T02:15:13.143Z,20.70
2018-07-06T02:17:52.775Z,21.00
2018-07-06T02:20:32.563Z,20.60
2018-07-06T02:23:12.302Z,20.80
2018-07-06T02:25:51.999Z,20.90
2018-07-06T02:28:31.717Z,20.90
2018-07-06T02:31:15.412Z,20.70
2018-07-06T02:33:56.799Z,20.90
2018-07-06T02:36:41.328Z,21.00
2018-07-06T02:39:21.166Z,21.00
2018-07-06T02:42:02.139Z,20.90
2018-07-06T02:44:42.334Z,21.10
2018-07-06T02:47:22.486Z,20.70
2018-07-06T02:50:02.294Z,20.70
2018-07-06T02:52:42.180Z,20.60
2018-07-06T02:55:22.492Z,20.60
2018-07-06T02:58:01.996Z,20.60
2018-07-06T03:00:41.631Z,20.80
2018-07-06T03:03:21.343Z,20.70
2018-07-06T03:06:01.867Z,20.70
2018-07-06T03:08:41.505Z,20.40
2018-07-06T03:11:21.296Z,20.50
2018-07-06T03:14:00.951Z,20.50
2018-07-06T03:16:40.514Z,20.70
2018-07-06T03:19:20.201Z,20.30
2018-07-06T03:21:59.736Z,20.30
2018-07-06T03:24:39.424Z,20.50
2018-07-06T03:27:19.465Z,20.30
2018-07-06T03:29:59.187Z,20.60
2018-07-06T03:32:38.976Z,20.30
2018-07-06T03:37:52.454Z,20.30
2018-07-06T03:40:32.163Z,20.30
2018-07-06T03:43:11.933Z,20.20
2018-07-06T03:45:51.538Z,20.50
2018-07-06T03:48:31.144Z,20.50
2018-07-06T03:51:10.851Z,20.70
2018-07-06T03:53:50.679Z,20.40
2018-07-06T03:59:06.743Z,20.50
2018-07-06T04:01:46.498Z,20.70
2018-07-06T04:04:26.265Z,20.60
2018-07-06T04:07:06.023Z,20.90
2018-07-06T04:09:45.692Z,20.60
2018-07-06T04:12:25.386Z,20.60
2018-07-06T04:15:05.066Z,20.90
2018-07-06T04:17:44.851Z,21.30
2018-07-06T04:20:24.669Z,21.30
2018-07-06T04:23:04.311Z,21.50
2018-07-06T04:25:43.987Z,21.70
2018-07-06T04:28:23.788Z,22.00
2018-07-06T04:31:03.547Z,22.10
2018-07-06T04:33:43.296Z,22.00
2018-07-06T04:36:23.126Z,22.10
2018-07-06T04:39:03.191Z,22.10
2018-07-06T04:41:42.791Z,22.10
2018-07-06T04:44:22.623Z,22.00
2018-07-06T04:47:02.335Z,21.60
2018-07-06T04:49:41.963Z,22.00
2018-07-06T04:54:55.186Z,22.10
2018-07-06T04:57:35.072Z,22.30
2018-07-06T05:00:14.731Z,22.50
2018-07-06T05:02:54.319Z,22.50
2018-07-06T05:05:34.127Z,22.50
2018-07-06T05:08:13.891Z,22.50
2018-07-06T05:10:53.546Z,22.30
2018-07-06T05:13:33.182Z,22.40
2018-07-06T05:16:13.057Z,22.60
2018-07-06T05:18:52.791Z,22.60
2018-07-06T05:21:32.541Z,22.70
2018-07-06T05:24:12.221Z,22.70
2018-07-06T05:29:25.660Z,22.70
2018-07-06T05:32:05.214Z,22.70
2018-07-06T05:34:44.937Z,22.80
2018-07-06T05:37:24.667Z,22.80
2018-07-06T05:40:04.342Z,22.90
2018-07-06T05:42:44.019Z,23.00
2018-07-06T05:45:23.735Z,23.00
2018-07-06T05:48:03.249Z,23.00
2018-07-06T05:50:42.859Z,23.00
2018-07-06T05:53:22.530Z,23.00
2018-07-06T05:56:02.313Z,22.90
2018-07-06T05:58:42.188Z,22.90
2018-07-06T06:01:21.869Z,23.00
2018-07-06T06:04:01.707Z,23.10
2018-07-06T06:06:41.348Z,23.20
2018-07-06T06:22:15.703Z,23.10
2018-07-06T06:24:44.098Z,23.10
2018-07-06T06:27:12.427Z,23.10
2018-07-06T06:29:40.776Z,23.10
2018-07-06T06:32:09.792Z,23.10
2018-07-06T06:34:38.126Z,23.20
2018-07-06T06:37:06.420Z,23.30
2018-07-06T06:39:34.836Z,23.20
2018-07-06T06:42:03.533Z,23.10
2018-07-06T06:44:31.906Z,23.20
2018-07-06T06:47:00.691Z,23.10
2018-07-06T06:49:30.284Z,23.30
2018-07-06T06:51:59.175Z,23.30
2018-07-06T06:54:27.613Z,23.20
2018-07-06T06:56:55.979Z,23.40
2018-07-06T07:01:52.471Z,23.60
2018-07-06T07:04:21.391Z,23.70
2018-07-06T07:06:49.750Z,23.80
2018-07-06T07:09:18.122Z,24.00
2018-07-06T07:11:46.445Z,24.00
2018-07-06T07:14:14.892Z,24.10
2018-07-06T07:16:43.305Z,24.30
2018-07-06T07:19:11.608Z,24.40
2018-07-06T07:21:39.924Z,24.40
2018-07-06T07:24:08.283Z,24.50
2018-07-06T07:26:36.696Z,24.60
2018-07-06T07:29:05.086Z,24.70
2018-07-06T07:31:33.479Z,24.80
2018-07-06T07:34:01.893Z,25.00
2018-07-06T07:36:30.238Z,25.10
2018-07-06T07:38:58.702Z,25.10
2018-07-06T07:41:26.998Z,25.10
2018-07-06T07:46:23.544Z,25.40
2018-07-06T07:48:51.884Z,25.40
2018-07-06T07:52:12.025Z,25.50
2018-07-06T07:54:47.314Z,25.80
2018-07-06T07:57:15.745Z,25.80
2018-07-06T07:59:44.458Z,25.80
2018-07-06T08:02:13.026Z,25.90
2018-07-06T08:04:41.901Z,26.10
2018-07-06T08:07:10.289Z,26.10
2018-07-06T08:09:38.716Z,26.20
2018-07-06T08:12:07.120Z,26.30
2018-07-06T08:14:35.481Z,26.40
2018-07-06T08:17:03.842Z,26.40
2018-07-06T08:19:32.219Z,27.40
2018-07-06T08:22:00.596Z,27.00
2018-07-06T08:24:28.940Z,26.80
2018-07-06T08:26:57.280Z,27.30
2018-07-06T08:29:25.630Z,27.20
2018-07-06T08:31:54.027Z,27.20
2018-07-06T08:37:54.236Z,27.20
2018-07-06T08:40:23.729Z,27.20
2018-07-06T08:42:53.490Z,27.30
2018-07-06T08:45:21.928Z,27.50
2018-07-06T08:47:50.315Z,27.40
2018-07-06T08:50:18.686Z,28.00
2018-07-06T08:52:48.347Z,27.70
2018-07-06T08:55:17.048Z,28.20
2018-07-06T08:57:47.198Z,29.20
2018-07-06T09:00:16.232Z,29.70
2018-07-06T09:02:44.587Z,30.00
2018-07-06T09:05:13.435Z,30.20
2018-07-06T09:12:38.339Z,30.80
2018-07-06T09:15:07.225Z,30.90
2018-07-06T09:17:35.696Z,31.10
2018-07-06T09:20:04.189Z,31.20
2018-07-06T09:22:32.721Z,31.30
2018-07-06T09:25:04.466Z,31.40
2018-07-06T09:27:32.823Z,31.50
2018-07-06T09:30:01.176Z,31.60
2018-07-06T09:32:29.653Z,31.70
2018-07-06T09:34:58.801Z,31.70
2018-07-06T09:37:27.125Z,31.70
2018-07-06T09:39:55.520Z,31.80
2018-07-06T09:42:23.935Z,31.90
2018-07-06T09:44:52.307Z,32.00
2018-07-06T09:47:20.700Z,32.10
2018-07-06T09:49:49.177Z,32.00
2018-07-06T09:54:45.698Z,32.10
2018-07-06T09:57:14.081Z,32.10
2018-07-06T09:59:42.462Z,32.10
2018-07-06T10:02:10.809Z,32.20
2018-07-06T10:04:39.196Z,32.20
2018-07-06T10:07:07.545Z,32.30
2018-07-06T10:09:35.980Z,32.40
2018-07-06T10:12:04.340Z,32.30
2018-07-06T10:14:32.698Z,32.40
2018-07-06T10:17:01.171Z,32.40
2018-07-06T10:19:29.720Z,32.40
2018-07-06T10:21:58.096Z,32.40
2018-07-06T10:24:26.448Z,32.40
2018-07-06T10:26:54.755Z,32.50
2018-07-06T10:29:31.397Z,32.60
2018-07-06T10:32:24.160Z,32.60
2018-07-06T10:34:52.567Z,32.60
2018-07-06T10:37:21.149Z,32.60
2018-07-06T10:39:50.124Z,32.60
2018-07-06T10:42:18.469Z,32.60
2018-07-06T10:44:46.818Z,32.50
2018-07-06T10:47:15.247Z,32.60
2018-07-06T10:49:43.744Z,32.60
2018-07-06T10:52:12.971Z,32.60
2018-07-06T10:54:42.289Z,32.60
2018-07-06T10:57:10.671Z,32.60
2018-07-06T10:59:39.155Z,32.60
2018-07-06T11:02:07.695Z,32.70
2018-07-06T11:04:36.014Z,32.70
2018-07-06T11:07:04.396Z,32.70
2018-07-06T11:09:33.426Z,32.80
2018-07-06T11:12:01.841Z,32.80
2018-07-06T11:14:30.214Z,32.80
2018-07-06T11:16:58.631Z,32.70
2018-07-06T11:19:27.099Z,32.80
2018-07-06T11:21:55.486Z,32.70
2018-07-06T11:24:23.831Z,32.80
2018-07-06T11:26:52.207Z,32.70
2018-07-06T11:29:20.546Z,32.70
2018-07-06T11:31:48.911Z,32.70
2018-07-06T11:34:17.257Z,32.70
2018-07-06T11:39:13.776Z,32.70
2018-07-06T11:41:42.114Z,32.70
2018-07-06T11:44:10.461Z,32.70
2018-07-06T11:46:39.443Z,32.70
2018-07-06T11:49:07.782Z,32.70
2018-07-06T11:51:36.193Z,32.70
2018-07-06T11:54:04.550Z,32.60
2018-07-06T11:56:32.851Z,32.60
2018-07-06T11:59:01.410Z,32.60
2018-07-06T12:01:29.839Z,32.60
2018-07-06T12:03:58.206Z,32.60
2018-07-06T12:06:26.544Z,32.50
2018-07-06T12:08:54.859Z,32.50
2018-07-06T12:11:23.296Z,32.50
2018-07-06T12:13:51.661Z,32.50
2018-07-06T12:16:20.011Z,32.50
2018-07-06T12:18:48.347Z,32.40
2018-07-06T12:21:16.697Z,32.40
2018-07-06T12:23:45.026Z,32.40
2018-07-06T12:26:13.372Z,32.40
2018-07-06T12:28:41.676Z,32.40
2018-07-06T12:31:09.988Z,32.30
2018-07-06T12:33:38.338Z,32.30
2018-07-06T12:36:06.799Z,32.30
2018-07-06T12:38:35.127Z,32.20
2018-07-06T12:41:03.434Z,32.20
2018-07-06T12:43:31.829Z,32.20
2018-07-06T12:46:00.232Z,32.20
2018-07-06T12:48:28.567Z,32.20
2018-07-06T12:50:56.901Z,32.10
2018-07-06T12:53:25.246Z,32.10
2018-07-06T12:55:53.575Z,32.10
2018-07-06T12:58:22.007Z,32.00
2018-07-06T13:00:50.306Z,32.00
2018-07-06T13:03:18.706Z,32.00
2018-07-06T13:05:47.119Z,32.00
2018-07-06T13:08:15.484Z,32.00
2018-07-06T13:10:43.791Z,32.00
2018-07-06T13:13:12.198Z,31.90
2018-07-06T13:15:40.533Z,31.90
2018-07-06T13:18:08.901Z,31.90
2018-07-06T13:20:37.195Z,31.90
2018-07-06T13:23:05.579Z,31.90
2018-07-06T13:25:33.879Z,31.90
2018-07-06T13:28:02.311Z,31.80
2018-07-06T13:30:30.672Z,31.80
2018-07-06T13:32:59.546Z,31.80
2018-07-06T13:35:27.860Z,31.70
2018-07-06T13:37:56.228Z,31.70
2018-07-06T13:40:24.580Z,31.70
2018-07-06T13:42:53.014Z,31.60
2018-07-06T13:45:21.379Z,31.60
2018-07-06T13:47:49.683Z,31.60
2018-07-06T13:50:17.983Z,31.60
2018-07-06T13:52:46.350Z,31.50
2018-07-06T13:55:14.679Z,31.60
2018-07-06T13:57:42.970Z,31.60
2018-07-06T14:00:11.290Z,31.60
2018-07-06T14:02:39.601Z,31.60
2018-07-06T14:05:07.970Z,31.60
2018-07-06T14:07:36.304Z,31.60
2018-07-06T14:10:05.167Z,31.50
2018-07-06T14:12:33.536Z,31.60
2018-07-06T14:15:01.876Z,31.50
2018-07-06T14:17:30.247Z,31.50
2018-07-06T14:19:58.527Z,31.50
2018-07-06T14:22:26.987Z,31.50
2018-07-06T14:24:55.287Z,31.50
2018-07-06T14:27:23.600Z,31.50
2018-07-06T14:29:51.951Z,31.50
2018-07-06T14:32:20.303Z,31.40
2018-07-06T14:34:48.600Z,31.50
2018-07-06T14:50:16.974Z,31.40
2018-07-06T14:52:45.283Z,31.30
2018-07-06T14:55:13.637Z,31.20
2018-07-06T14:57:41.918Z,31.30
2018-07-06T15:00:10.363Z,31.20
2018-07-06T15:02:38.715Z,31.20
2018-07-06T15:05:07.013Z,31.20
2018-07-06T15:07:35.327Z,31.20
2018-07-06T15:10:03.689Z,31.20
2018-07-06T15:12:32.089Z,31.20
2018-07-06T15:15:00.438Z,31.10
2018-07-06T15:17:28.740Z,31.20
2018-07-06T15:19:57.054Z,31.10
2018-07-06T15:22:25.433Z,31.10
2018-07-06T15:24:53.796Z,31.10
2018-07-06T15:27:22.119Z,31.00
2018-07-06T15:29:50.468Z,31.00
2018-07-06T15:32:18.810Z,31.00
2018-07-06T15:34:47.171Z,31.00
2018-07-06T15:37:15.557Z,31.00
2018-07-06T15:42:12.111Z,31.00
2018-07-06T15:44:40.493Z,31.00
2018-07-06T15:47:08.944Z,31.00
2018-07-06T15:49:37.339Z,30.90
2018-07-06T15:52:05.628Z,30.90
2018-07-06T15:54:34.013Z,30.90
2018-07-06T15:57:02.437Z,30.90
2018-07-06T15:59:30.843Z,30.80
2018-07-06T16:02:00.113Z,30.80
2018-07-06T16:04:28.498Z,30.80
2018-07-06T16:06:56.794Z,30.70
2018-07-06T16:09:25.101Z,30.70
2018-07-06T16:14:21.527Z,30.60
2018-07-06T16:16:49.918Z,30.60
2018-07-06T16:19:18.449Z,30.60
2018-07-06T16:21:46.751Z,30.60
2018-07-06T16:24:15.140Z,30.50
2018-07-06T16:26:43.726Z,30.50
2018-07-06T16:29:12.037Z,30.50
2018-07-06T16:31:40.539Z,30.50
2018-07-06T16:34:08.775Z,30.50
2018-07-06T16:36:37.076Z,30.50
2018-07-06T16:39:05.852Z,30.40
2018-07-06T16:41:34.194Z,30.40
2018-07-06T16:44:02.815Z,30.40
2018-07-06T16:46:31.902Z,30.30
2018-07-06T16:49:01.719Z,30.30
2018-07-06T16:51:30.090Z,30.30
2018-07-06T16:53:58.405Z,30.30
2018-07-06T16:56:27.205Z,30.30
2018-07-06T16:58:55.584Z,30.20
2018-07-06T17:01:23.932Z,30.20
2018-07-06T17:03:52.242Z,30.20
2018-07-06T17:06:20.576Z,30.20
2018-07-06T17:11:16.942Z,30.10
2018-07-06T17:13:45.230Z,30.10
2018-07-06T17:16:13.634Z,30.10
2018-07-06T17:18:41.976Z,30.00
2018-07-06T17:21:10.335Z,30.00
2018-07-06T17:23:39.316Z,30.00
2018-07-06T17:26:07.796Z,29.90
2018-07-06T17:28:36.160Z,29.90
2018-07-06T17:31:04.510Z,29.80
2018-07-06T17:33:32.891Z,29.80
2018-07-06T17:36:01.287Z,29.80
2018-07-06T17:38:29.628Z,29.80
2018-07-06T17:40:58.005Z,29.70
2018-07-06T18:30:21.614Z,29.10
2018-07-06T18:40:14.201Z,29.00
2018-07-06T18:42:42.542Z,28.90
2018-07-06T19:02:27.679Z,28.50
2018-07-06T19:07:24.134Z,28.50
2018-07-06T19:09:52.536Z,26.80
2018-07-06T19:12:20.894Z,26.10
2018-07-06T19:14:49.226Z,25.80
2018-07-06T19:17:17.639Z,25.80
2018-07-06T19:19:45.939Z,25.70
2018-07-06T19:22:14.267Z,25.70
2018-07-06T19:24:42.668Z,25.60
2018-07-06T19:27:11.032Z,25.50
2018-07-06T19:29:39.451Z,25.50
2018-07-06T19:32:07.883Z,25.40
2018-07-06T19:34:36.217Z,25.30
2018-07-06T19:37:04.708Z,25.20
2018-07-06T19:39:33.255Z,24.90
2018-07-06T19:42:01.806Z,24.70
2018-07-06T19:44:30.358Z,24.90
2018-07-06T19:46:58.872Z,24.80
2018-07-06T19:49:27.246Z,24.40
2018-07-06T19:51:55.558Z,24.50
2018-07-06T19:54:23.874Z,24.60
2018-07-06T19:56:52.249Z,24.60
2018-07-06T19:59:20.655Z,24.60
2018-07-06T20:01:48.989Z,24.60
2018-07-06T20:04:18.236Z,24.60
2018-07-06T20:06:46.567Z,24.40
2018-07-06T20:09:15.872Z,24.30
2018-07-06T20:11:45.366Z,23.90
2018-07-06T20:14:13.723Z,23.70
2018-07-06T20:16:42.318Z,23.80
2018-07-06T20:19:10.772Z,23.80
2018-07-06T20:21:39.206Z,23.90
2018-07-06T20:24:07.652Z,23.90
2018-07-06T20:26:36.058Z,23.80
2018-07-06T20:29:04.533Z,23.80
2018-07-06T20:31:32.783Z,23.90
2018-07-06T20:34:01.180Z,24.40
2018-07-06T20:36:29.626Z,24.70
2018-07-06T20:38:57.995Z,24.70
2018-07-06T20:41:26.378Z,24.70
2018-07-06T20:43:54.705Z,24.90
2018-07-06T20:46:23.088Z,24.90
2018-07-06T20:48:51.447Z,25.00
2018-07-06T20:51:20.237Z,24.80
2018-07-06T20:53:48.687Z,24.80
2018-07-06T20:56:16.998Z,25.00
2018-07-06T20:58:45.307Z,25.10
2018-07-06T21:01:13.604Z,25.20
2018-07-06T21:03:41.946Z,25.20
2018-07-06T21:06:10.293Z,24.90
2018-07-06T21:11:07.419Z,25.00
2018-07-06T21:13:36.106Z,24.90
2018-07-06T21:16:04.593Z,25.00
2018-07-06T21:18:33.080Z,25.00
2018-07-06T21:21:01.495Z,24.90
2018-07-06T21:23:29.963Z,25.00
2018-07-06T21:25:58.369Z,25.10
2018-07-06T21:28:26.765Z,25.20
2018-07-06T21:30:55.188Z,25.10
2018-07-06T21:33:23.564Z,25.00
2018-07-06T21:35:52.024Z,25.00
2018-07-06T21:38:20.365Z,25.10
2018-07-06T21:40:48.777Z,25.10
2018-07-06T21:43:17.195Z,25.10
2018-07-06T21:48:13.690Z,24.80
2018-07-06T21:50:42.085Z,24.80
2018-07-06T21:53:10.493Z,24.80
2018-07-06T21:55:39.058Z,24.80
2018-07-06T21:58:07.443Z,24.80
2018-07-06T22:00:38.275Z,24.80
2018-07-06T22:03:07.539Z,24.90
2018-07-06T22:05:36.014Z,24.80
2018-07-06T22:08:05.591Z,24.80
2018-07-06T22:10:34.753Z,24.70
2018-07-06T22:13:03.198Z,24.80
2018-07-06T22:15:37.079Z,24.80
2018-07-06T22:18:05.603Z,24.80
2018-07-06T22:20:34.007Z,24.70
2018-07-06T22:23:02.440Z,24.70
2018-07-06T22:25:30.863Z,24.60
2018-07-06T22:27:59.557Z,24.50
2018-07-06T22:30:27.985Z,24.50
2018-07-06T22:32:56.383Z,24.60
2018-07-06T22:35:25.198Z,24.50
2018-07-06T22:37:53.703Z,24.40
2018-07-06T22:40:22.054Z,24.50
2018-07-06T22:42:51.227Z,24.50
2018-07-06T22:45:19.576Z,24.50
2018-07-06T22:47:48.018Z,24.30
2018-07-06T22:50:16.421Z,24.40
2018-07-06T22:52:44.805Z,24.20
2018-07-06T22:55:13.208Z,23.90
2018-07-06T22:57:41.555Z,24.10
2018-07-06T23:00:09.940Z,24.20
2018-07-06T23:02:38.375Z,24.20
2018-07-06T23:05:12.354Z,24.20
2018-07-06T23:07:40.751Z,24.30
2018-07-06T23:10:09.125Z,24.20
2018-07-06T23:12:38.274Z,24.20
2018-07-06T23:15:06.716Z,24.10
2018-07-06T23:17:35.135Z,23.80
2018-07-06T23:20:03.636Z,23.80
2018-07-06T23:25:38.840Z,23.80
2018-07-06T23:28:07.247Z,23.60
2018-07-06T23:30:35.693Z,23.70
2018-07-06T23:33:04.927Z,23.70
2018-07-06T23:35:33.421Z,23.80
2018-07-06T23:38:01.806Z,23.80
2018-07-06T23:40:30.316Z,23.70
2018-07-06T23:42:58.768Z,23.80
2018-07-06T23:45:27.179Z,23.80
2018-07-06T23:47:55.639Z,23.80
2018-07-06T23:50:24.194Z,23.70
2018-07-06T23:52:52.706Z,23.60
2018-07-06T23:55:21.289Z,23.60
2018-07-06T23:57:50.052Z,23.60
